sensor_id;sensor_type;location;lat;lon;timestamp;temperature;humidity
18281;DHT22;9266;51.132;17.062;2024-02-16T00:00:29;8.10;89.30
18281;DHT22;9266;51.132;17.062;2024-02-16T00:02:56;8.10;99.90
18281;DHT22;9266;51.132;17.062;2024-02-16T00:05:25;8.10;99.90
18281;DHT22;9266;51.132;17.062;2024-02-16T00:07:53;8.20;99.40
18281;DHT22;9266;51.132;17.062;2024-02-16T00:10:20;8.20;1.00
18281;DHT22;9266;51.132;17.062;2024-02-16T00:12:47;8.20;1.00
18281;DHT22;9266;51.132;17.062;2024-02-16T00:15:14;8.20;1.00
18281;DHT22;9266;51.132;17.062;2024-02-16T00:17:41;8.30;1.00
18281;DHT22;9266;51.132;17.062;2024-02-16T00:20:08;8.30;1.00
18281;DHT22;9266;51.132;17.062;2024-02-16T00:22:38;8.30;1.00
18281;DHT22;9266;51.132;17.062;2024-02-16T00:25:07;8.30;1.00
18281;DHT22;9266;51.132;17.062;2024-02-16T00:27:34;8.30;1.00
18281;DHT22;9266;51.132;17.062;2024-02-16T00:30:01;8.30;99.90
18281;DHT22;9266;51.132;17.062;2024-02-16T00:32:28;8.30;99.90
18281;DHT22;9266;51.132;17.062;2024-02-16T00:34:57;8.30;99.90
18281;DHT22;9266;51.132;17.062;2024-02-16T00:37:24;8.30;1.00
18281;DHT22;9266;51.132;17.062;2024-02-16T00:39:51;8.20;1.00
18281;DHT22;9266;51.132;17.062;2024-02-16T00:42:21;8.10;1.00
18281;DHT22;9266;51.132;17.062;2024-02-16T00:44:49;8.10;1.00
18281;DHT22;9266;51.132;17.062;2024-02-16T00:47:16;8.00;1.00
18281;DHT22;9266;51.132;17.062;2024-02-16T00:49:43;7.90;99.90
18281;DHT22;9266;51.132;17.062;2024-02-16T00:52:10;7.80;99.90
18281;DHT22;9266;51.132;17.062;2024-02-16T00:54:37;7.90;1.00
18281;DHT22;9266;51.132;17.062;2024-02-16T00:57:04;7.90;1.00
18281;DHT22;9266;51.132;17.062;2024-02-16T00:59:33;7.80;1.00
18281;DHT22;9266;51.132;17.062;2024-02-16T01:01:59;7.80;1.00
18281;DHT22;9266;51.132;17.062;2024-02-16T01:04:26;7.70;1.00
18281;DHT22;9266;51.132;17.062;2024-02-16T01:06:55;7.70;1.00
18281;DHT22;9266;51.132;17.062;2024-02-16T01:09:22;7.70;1.00
18281;DHT22;9266;51.132;17.062;2024-02-16T01:11:49;7.70;1.00
18281;DHT22;9266;51.132;17.062;2024-02-16T01:14:16;7.60;1.00
18281;DHT22;9266;51.132;17.062;2024-02-16T01:16:45;7.50;1.00
18281;DHT22;9266;51.132;17.062;2024-02-16T01:19:12;7.40;1.00
18281;DHT22;9266;51.132;17.062;2024-02-16T01:21:39;7.40;22.60
18281;DHT22;9266;51.132;17.062;2024-02-16T01:24:06;7.30;91.00
18281;DHT22;9266;51.132;17.062;2024-02-16T01:26:34;7.30;99.90
18281;DHT22;9266;51.132;17.062;2024-02-16T01:29:01;7.30;99.90
18281;DHT22;9266;51.132;17.062;2024-02-16T01:31:28;7.30;99.90
18281;DHT22;9266;51.132;17.062;2024-02-16T01:33:56;7.30;99.90
18281;DHT22;9266;51.132;17.062;2024-02-16T01:36:23;7.20;99.90
18281;DHT22;9266;51.132;17.062;2024-02-16T01:38:50;7.20;99.90
18281;DHT22;9266;51.132;17.062;2024-02-16T01:41:17;7.00;99.90
18281;DHT22;9266;51.132;17.062;2024-02-16T01:43:44;7.10;99.90
18281;DHT22;9266;51.132;17.062;2024-02-16T01:46:11;7.00;99.90
18281;DHT22;9266;51.132;17.062;2024-02-16T01:48:38;7.00;99.90
18281;DHT22;9266;51.132;17.062;2024-02-16T01:51:08;7.00;99.90
18281;DHT22;9266;51.132;17.062;2024-02-16T01:53:35;6.90;99.90
18281;DHT22;9266;51.132;17.062;2024-02-16T01:56:03;6.90;99.90
18281;DHT22;9266;51.132;17.062;2024-02-16T01:58:30;6.90;99.90
18281;DHT22;9266;51.132;17.062;2024-02-16T02:00:57;6.80;99.90
18281;DHT22;9266;51.132;17.062;2024-02-16T02:03:24;6.80;99.90
18281;DHT22;9266;51.132;17.062;2024-02-16T02:05:52;6.90;99.90
18281;DHT22;9266;51.132;17.062;2024-02-16T02:08:21;7.60;99.90
18281;DHT22;9266;51.132;17.062;2024-02-16T02:10:48;6.90;99.90
18281;DHT22;9266;51.132;17.062;2024-02-16T02:13:15;6.80;99.90
18281;DHT22;9266;51.132;17.062;2024-02-16T02:15:45;6.70;99.90
18281;DHT22;9266;51.132;17.062;2024-02-16T02:18:12;6.80;99.90
18281;DHT22;9266;51.132;17.062;2024-02-16T02:20:39;6.90;99.90
18281;DHT22;9266;51.132;17.062;2024-02-16T02:23:07;6.80;99.90
18281;DHT22;9266;51.132;17.062;2024-02-16T02:25:34;6.70;99.90
18281;DHT22;9266;51.132;17.062;2024-02-16T02:28:02;6.70;99.90
18281;DHT22;9266;51.132;17.062;2024-02-16T02:30:29;6.70;99.90
18281;DHT22;9266;51.132;17.062;2024-02-16T02:32:56;6.70;99.90
18281;DHT22;9266;51.132;17.062;2024-02-16T02:35:23;6.70;99.90
18281;DHT22;9266;51.132;17.062;2024-02-16T02:37:50;6.70;99.90
18281;DHT22;9266;51.132;17.062;2024-02-16T02:40:19;6.70;99.90
18281;DHT22;9266;51.132;17.062;2024-02-16T02:42:46;6.70;99.90
18281;DHT22;9266;51.132;17.062;2024-02-16T02:45:13;6.60;99.90
18281;DHT22;9266;51.132;17.062;2024-02-16T02:47:40;6.60;99.90
18281;DHT22;9266;51.132;17.062;2024-02-16T02:50:08;6.00;99.90
18281;DHT22;9266;51.132;17.062;2024-02-16T02:52:35;6.50;99.90
18281;DHT22;9266;51.132;17.062;2024-02-16T02:55:02;6.50;99.90
18281;DHT22;9266;51.132;17.062;2024-02-16T02:57:30;6.50;99.90
18281;DHT22;9266;51.132;17.062;2024-02-16T03:00:03;6.50;99.90
18281;DHT22;9266;51.132;17.062;2024-02-16T03:02:31;6.40;99.90
18281;DHT22;9266;51.132;17.062;2024-02-16T03:04:58;6.50;99.90
18281;DHT22;9266;51.132;17.062;2024-02-16T03:07:25;6.40;99.90
18281;DHT22;9266;51.132;17.062;2024-02-16T03:09:52;6.50;99.90
18281;DHT22;9266;51.132;17.062;2024-02-16T03:12:19;6.50;99.90
18281;DHT22;9266;51.132;17.062;2024-02-16T03:14:49;6.50;99.90
18281;DHT22;9266;51.132;17.062;2024-02-16T03:17:16;6.50;99.90
18281;DHT22;9266;51.132;17.062;2024-02-16T03:19:43;6.50;99.90
18281;DHT22;9266;51.132;17.062;2024-02-16T03:22:10;6.40;99.90
18281;DHT22;9266;51.132;17.062;2024-02-16T03:24:37;6.50;99.90
18281;DHT22;9266;51.132;17.062;2024-02-16T03:27:04;6.50;99.90
18281;DHT22;9266;51.132;17.062;2024-02-16T03:29:31;6.40;99.90
18281;DHT22;9266;51.132;17.062;2024-02-16T03:31:59;6.40;99.90
18281;DHT22;9266;51.132;17.062;2024-02-16T03:34:26;6.30;99.90
18281;DHT22;9266;51.132;17.062;2024-02-16T03:36:53;6.30;99.90
18281;DHT22;9266;51.132;17.062;2024-02-16T03:39:20;6.30;99.90
18281;DHT22;9266;51.132;17.062;2024-02-16T03:41:48;6.30;99.90
18281;DHT22;9266;51.132;17.062;2024-02-16T03:44:15;6.30;99.90
18281;DHT22;9266;51.132;17.062;2024-02-16T03:46:42;6.30;99.90
18281;DHT22;9266;51.132;17.062;2024-02-16T03:49:11;6.30;99.90
18281;DHT22;9266;51.132;17.062;2024-02-16T03:51:38;6.30;99.90
18281;DHT22;9266;51.132;17.062;2024-02-16T03:54:05;6.30;99.90
18281;DHT22;9266;51.132;17.062;2024-02-16T03:56:32;6.20;99.90
18281;DHT22;9266;51.132;17.062;2024-02-16T03:59:00;6.20;99.90
18281;DHT22;9266;51.132;17.062;2024-02-16T04:01:25;6.10;99.90
18281;DHT22;9266;51.132;17.062;2024-02-16T04:03:52;6.20;99.90
18281;DHT22;9266;51.132;17.062;2024-02-16T04:06:21;6.20;99.90
18281;DHT22;9266;51.132;17.062;2024-02-16T04:08:48;6.20;99.90
18281;DHT22;9266;51.132;17.062;2024-02-16T04:11:15;6.20;99.90
18281;DHT22;9266;51.132;17.062;2024-02-16T04:13:42;6.20;99.90
18281;DHT22;9266;51.132;17.062;2024-02-16T04:16:10;6.20;99.90
18281;DHT22;9266;51.132;17.062;2024-02-16T04:18:37;6.20;99.90
18281;DHT22;9266;51.132;17.062;2024-02-16T04:21:04;6.20;99.90
18281;DHT22;9266;51.132;17.062;2024-02-16T04:23:32;6.20;99.90
18281;DHT22;9266;51.132;17.062;2024-02-16T04:25:59;6.10;99.90
18281;DHT22;9266;51.132;17.062;2024-02-16T04:28:26;6.10;99.90
18281;DHT22;9266;51.132;17.062;2024-02-16T04:30:53;6.10;99.90
18281;DHT22;9266;51.132;17.062;2024-02-16T04:33:20;6.00;99.90
18281;DHT22;9266;51.132;17.062;2024-02-16T04:35:47;5.90;99.90
18281;DHT22;9266;51.132;17.062;2024-02-16T04:38:16;5.80;99.90
18281;DHT22;9266;51.132;17.062;2024-02-16T04:40:45;5.70;99.90
18281;DHT22;9266;51.132;17.062;2024-02-16T04:43:12;5.70;99.90
18281;DHT22;9266;51.132;17.062;2024-02-16T04:45:39;6.60;99.90
18281;DHT22;9266;51.132;17.062;2024-02-16T04:48:07;5.60;99.90
18281;DHT22;9266;51.132;17.062;2024-02-16T04:50:34;5.60;99.90
18281;DHT22;9266;51.132;17.062;2024-02-16T04:53:01;5.60;99.90
18281;DHT22;9266;51.132;17.062;2024-02-16T04:55:29;5.60;99.90
18281;DHT22;9266;51.132;17.062;2024-02-16T04:57:57;5.60;99.90
18281;DHT22;9266;51.132;17.062;2024-02-16T05:00:25;5.50;99.90
18281;DHT22;9266;51.132;17.062;2024-02-16T05:02:53;5.50;99.90
18281;DHT22;9266;51.132;17.062;2024-02-16T05:05:19;5.50;99.90
18281;DHT22;9266;51.132;17.062;2024-02-16T05:07:48;5.50;99.90
18281;DHT22;9266;51.132;17.062;2024-02-16T05:10:16;5.50;99.90
18281;DHT22;9266;51.132;17.062;2024-02-16T05:12:45;5.40;99.90
18281;DHT22;9266;51.132;17.062;2024-02-16T05:15:13;5.40;99.90
18281;DHT22;9266;51.132;17.062;2024-02-16T05:17:41;5.40;99.90
18281;DHT22;9266;51.132;17.062;2024-02-16T05:20:10;5.40;99.90
18281;DHT22;9266;51.132;17.062;2024-02-16T05:22:41;5.40;99.90
18281;DHT22;9266;51.132;17.062;2024-02-16T05:25:09;5.40;99.90
18281;DHT22;9266;51.132;17.062;2024-02-16T05:27:37;5.40;99.90
18281;DHT22;9266;51.132;17.062;2024-02-16T05:30:05;5.40;99.90
18281;DHT22;9266;51.132;17.062;2024-02-16T05:32:35;5.40;99.90
18281;DHT22;9266;51.132;17.062;2024-02-16T05:35:03;5.40;99.90
18281;DHT22;9266;51.132;17.062;2024-02-16T05:37:37;5.40;99.90
18281;DHT22;9266;51.132;17.062;2024-02-16T05:40:07;5.40;99.90
18281;DHT22;9266;51.132;17.062;2024-02-16T05:42:45;5.30;99.90
18281;DHT22;9266;51.132;17.062;2024-02-16T05:45:13;5.30;99.90
18281;DHT22;9266;51.132;17.062;2024-02-16T05:47:42;5.30;99.90
18281;DHT22;9266;51.132;17.062;2024-02-16T05:50:11;5.30;99.90
18281;DHT22;9266;51.132;17.062;2024-02-16T05:52:38;5.30;99.90
18281;DHT22;9266;51.132;17.062;2024-02-16T05:55:07;5.30;99.90
18281;DHT22;9266;51.132;17.062;2024-02-16T05:57:35;5.30;99.90
18281;DHT22;9266;51.132;17.062;2024-02-16T06:00:03;5.30;99.90
18281;DHT22;9266;51.132;17.062;2024-02-16T06:02:30;5.30;99.90
18281;DHT22;9266;51.132;17.062;2024-02-16T06:04:59;5.20;99.90
18281;DHT22;9266;51.132;17.062;2024-02-16T06:07:26;5.30;99.90
18281;DHT22;9266;51.132;17.062;2024-02-16T06:09:54;5.30;99.90
18281;DHT22;9266;51.132;17.062;2024-02-16T06:12:22;5.30;99.90
18281;DHT22;9266;51.132;17.062;2024-02-16T06:14:49;5.30;99.90
18281;DHT22;9266;51.132;17.062;2024-02-16T06:17:16;5.40;99.90
18281;DHT22;9266;51.132;17.062;2024-02-16T06:19:43;5.40;99.90
18281;DHT22;9266;51.132;17.062;2024-02-16T06:22:12;5.50;99.90
18281;DHT22;9266;51.132;17.062;2024-02-16T06:24:39;5.50;99.90
18281;DHT22;9266;51.132;17.062;2024-02-16T06:27:06;5.60;99.90
18281;DHT22;9266;51.132;17.062;2024-02-16T06:29:33;5.70;99.90
18281;DHT22;9266;51.132;17.062;2024-02-16T06:32:02;5.90;99.90
18281;DHT22;9266;51.132;17.062;2024-02-16T06:34:30;6.00;99.90
18281;DHT22;9266;51.132;17.062;2024-02-16T06:36:57;6.20;99.90
18281;DHT22;9266;51.132;17.062;2024-02-16T06:39:25;6.40;99.90
18281;DHT22;9266;51.132;17.062;2024-02-16T06:41:52;6.50;99.90
18281;DHT22;9266;51.132;17.062;2024-02-16T06:44:19;6.80;99.90
18281;DHT22;9266;51.132;17.062;2024-02-16T06:46:46;7.00;99.90
18281;DHT22;9266;51.132;17.062;2024-02-16T06:49:13;7.20;99.90
18281;DHT22;9266;51.132;17.062;2024-02-16T06:51:40;7.50;99.90
18281;DHT22;9266;51.132;17.062;2024-02-16T06:54:08;7.80;99.90
18281;DHT22;9266;51.132;17.062;2024-02-16T06:56:36;8.10;99.90
18281;DHT22;9266;51.132;17.062;2024-02-16T06:59:03;8.20;99.90
18281;DHT22;9266;51.132;17.062;2024-02-16T07:01:30;8.40;99.90
18281;DHT22;9266;51.132;17.062;2024-02-16T07:03:57;8.40;99.90
18281;DHT22;9266;51.132;17.062;2024-02-16T07:06:24;8.60;99.90
18281;DHT22;9266;51.132;17.062;2024-02-16T07:08:51;8.70;99.90
18281;DHT22;9266;51.132;17.062;2024-02-16T07:11:19;8.60;1.00
18281;DHT22;9266;51.132;17.062;2024-02-16T07:13:48;8.50;99.90
18281;DHT22;9266;51.132;17.062;2024-02-16T07:16:15;8.90;50.00
18281;DHT22;9266;51.132;17.062;2024-02-16T07:18:44;9.20;1.00
18281;DHT22;9266;51.132;17.062;2024-02-16T07:21:11;9.60;1.00
18281;DHT22;9266;51.132;17.062;2024-02-16T07:23:38;9.60;99.90
18281;DHT22;9266;51.132;17.062;2024-02-16T07:26:05;10.00;1.00
18281;DHT22;9266;51.132;17.062;2024-02-16T07:28:33;10.30;94.60
18281;DHT22;9266;51.132;17.062;2024-02-16T07:31:02;10.50;1.00
18281;DHT22;9266;51.132;17.062;2024-02-16T07:33:29;10.70;99.90
18281;DHT22;9266;51.132;17.062;2024-02-16T07:35:56;11.00;1.00
18281;DHT22;9266;51.132;17.062;2024-02-16T07:38:23;11.00;1.00
18281;DHT22;9266;51.132;17.062;2024-02-16T07:40:50;11.10;1.00
18281;DHT22;9266;51.132;17.062;2024-02-16T07:43:17;11.50;99.90
18281;DHT22;9266;51.132;17.062;2024-02-16T07:45:44;11.60;99.90
18281;DHT22;9266;51.132;17.062;2024-02-16T07:48:13;11.80;99.90
18281;DHT22;9266;51.132;17.062;2024-02-16T07:50:40;11.80;62.40
18281;DHT22;9266;51.132;17.062;2024-02-16T07:53:07;12.00;1.00
18281;DHT22;9266;51.132;17.062;2024-02-16T07:55:35;11.90;1.00
18281;DHT22;9266;51.132;17.062;2024-02-16T07:58:02;12.00;1.00
18281;DHT22;9266;51.132;17.062;2024-02-16T08:00:29;12.00;1.00
18281;DHT22;9266;51.132;17.062;2024-02-16T08:02:56;12.20;1.00
18281;DHT22;9266;51.132;17.062;2024-02-16T08:05:25;12.40;1.00
18281;DHT22;9266;51.132;17.062;2024-02-16T08:07:52;12.50;1.00
18281;DHT22;9266;51.132;17.062;2024-02-16T08:10:20;12.60;1.00
18281;DHT22;9266;51.132;17.062;2024-02-16T08:12:47;12.60;1.00
18281;DHT22;9266;51.132;17.062;2024-02-16T08:15:14;12.60;1.00
18281;DHT22;9266;51.132;17.062;2024-02-16T08:17:48;12.20;1.00
18281;DHT22;9266;51.132;17.062;2024-02-16T08:20:15;11.90;1.00
18281;DHT22;9266;51.132;17.062;2024-02-16T08:22:43;11.80;1.00
18281;DHT22;9266;51.132;17.062;2024-02-16T08:25:10;11.70;1.00
18281;DHT22;9266;51.132;17.062;2024-02-16T08:27:37;11.60;1.00
18281;DHT22;9266;51.132;17.062;2024-02-16T08:30:05;11.50;21.60
18281;DHT22;9266;51.132;17.062;2024-02-16T08:32:34;11.40;99.90
18281;DHT22;9266;51.132;17.062;2024-02-16T08:35:01;11.30;99.90
18281;DHT22;9266;51.132;17.062;2024-02-16T08:37:28;11.30;99.90
18281;DHT22;9266;51.132;17.062;2024-02-16T08:39:57;11.30;99.90
18281;DHT22;9266;51.132;17.062;2024-02-16T08:42:24;11.40;99.90
18281;DHT22;9266;51.132;17.062;2024-02-16T08:44:51;11.50;24.20
18281;DHT22;9266;51.132;17.062;2024-02-16T08:47:18;11.70;1.00
18281;DHT22;9266;51.132;17.062;2024-02-16T08:49:45;11.90;1.00
18281;DHT22;9266;51.132;17.062;2024-02-16T08:52:12;12.10;1.00
18281;DHT22;9266;51.132;17.062;2024-02-16T08:54:39;12.10;1.00
18281;DHT22;9266;51.132;17.062;2024-02-16T08:57:07;12.10;1.00
18281;DHT22;9266;51.132;17.062;2024-02-16T08:59:35;12.00;1.00
18281;DHT22;9266;51.132;17.062;2024-02-16T09:02:02;11.90;1.00
18281;DHT22;9266;51.132;17.062;2024-02-16T09:04:30;11.90;1.00
18281;DHT22;9266;51.132;17.062;2024-02-16T09:06:57;12.10;1.00
18281;DHT22;9266;51.132;17.062;2024-02-16T09:09:23;12.20;1.00
18281;DHT22;9266;51.132;17.062;2024-02-16T09:11:51;12.30;1.00
18281;DHT22;9266;51.132;17.062;2024-02-16T09:14:20;12.40;1.00
18281;DHT22;9266;51.132;17.062;2024-02-16T09:16:48;12.40;1.00
18281;DHT22;9266;51.132;17.062;2024-02-16T09:19:17;12.60;1.00
18281;DHT22;9266;51.132;17.062;2024-02-16T09:21:45;12.70;1.00
18281;DHT22;9266;51.132;17.062;2024-02-16T09:24:12;13.00;1.00
18281;DHT22;9266;51.132;17.062;2024-02-16T09:26:44;13.40;1.00
18281;DHT22;9266;51.132;17.062;2024-02-16T09:29:13;13.30;1.00
18281;DHT22;9266;51.132;17.062;2024-02-16T09:31:41;13.50;1.00
18281;DHT22;9266;51.132;17.062;2024-02-16T09:34:08;13.50;1.00
18281;DHT22;9266;51.132;17.062;2024-02-16T09:36:35;13.30;1.00
18281;DHT22;9266;51.132;17.062;2024-02-16T09:39:03;13.10;1.00
18281;DHT22;9266;51.132;17.062;2024-02-16T09:41:32;13.10;1.00
18281;DHT22;9266;51.132;17.062;2024-02-16T09:44:01;13.10;1.00
18281;DHT22;9266;51.132;17.062;2024-02-16T09:46:30;12.40;1.00
18281;DHT22;9266;51.132;17.062;2024-02-16T09:49:01;12.80;1.00
18281;DHT22;9266;51.132;17.062;2024-02-16T09:51:29;12.70;1.00
18281;DHT22;9266;51.132;17.062;2024-02-16T09:53:56;12.50;1.00
18281;DHT22;9266;51.132;17.062;2024-02-16T09:56:23;12.40;1.00
18281;DHT22;9266;51.132;17.062;2024-02-16T09:58:51;12.40;1.00
18281;DHT22;9266;51.132;17.062;2024-02-16T10:01:19;12.40;1.00
18281;DHT22;9266;51.132;17.062;2024-02-16T10:03:47;12.40;1.00
18281;DHT22;9266;51.132;17.062;2024-02-16T10:06:17;12.50;1.00
18281;DHT22;9266;51.132;17.062;2024-02-16T10:08:50;12.60;1.00
18281;DHT22;9266;51.132;17.062;2024-02-16T10:11:18;12.60;1.00
18281;DHT22;9266;51.132;17.062;2024-02-16T10:13:55;12.70;1.00
18281;DHT22;9266;51.132;17.062;2024-02-16T10:16:23;12.80;1.00
18281;DHT22;9266;51.132;17.062;2024-02-16T10:18:50;12.80;1.00
18281;DHT22;9266;51.132;17.062;2024-02-16T10:21:28;12.90;1.00
18281;DHT22;9266;51.132;17.062;2024-02-16T10:23:59;13.00;1.00
18281;DHT22;9266;51.132;17.062;2024-02-16T10:26:26;13.10;1.00
18281;DHT22;9266;51.132;17.062;2024-02-16T10:28:56;13.10;1.00
18281;DHT22;9266;51.132;17.062;2024-02-16T10:31:24;13.20;1.00
18281;DHT22;9266;51.132;17.062;2024-02-16T10:33:57;13.20;1.00
18281;DHT22;9266;51.132;17.062;2024-02-16T10:36:25;13.30;1.00
18281;DHT22;9266;51.132;17.062;2024-02-16T10:38:55;13.40;1.00
18281;DHT22;9266;51.132;17.062;2024-02-16T10:41:26;13.40;1.00
18281;DHT22;9266;51.132;17.062;2024-02-16T10:43:55;13.60;1.00
18281;DHT22;9266;51.132;17.062;2024-02-16T10:46:23;13.70;1.00
18281;DHT22;9266;51.132;17.062;2024-02-16T10:48:50;13.90;1.00
18281;DHT22;9266;51.132;17.062;2024-02-16T10:51:21;14.00;1.00
18281;DHT22;9266;51.132;17.062;2024-02-16T10:53:52;14.00;1.00
18281;DHT22;9266;51.132;17.062;2024-02-16T10:56:32;14.00;1.00
18281;DHT22;9266;51.132;17.062;2024-02-16T10:59:04;14.10;1.00
18281;DHT22;9266;51.132;17.062;2024-02-16T11:01:37;14.10;1.00
18281;DHT22;9266;51.132;17.062;2024-02-16T11:04:05;14.20;1.00
18281;DHT22;9266;51.132;17.062;2024-02-16T11:06:45;14.30;1.00
18281;DHT22;9266;51.132;17.062;2024-02-16T11:09:25;14.10;1.00
18281;DHT22;9266;51.132;17.062;2024-02-16T11:11:54;14.10;1.00
18281;DHT22;9266;51.132;17.062;2024-02-16T11:14:22;14.20;1.00
18281;DHT22;9266;51.132;17.062;2024-02-16T11:16:54;14.20;1.00
18281;DHT22;9266;51.132;17.062;2024-02-16T11:19:22;14.40;1.00
18281;DHT22;9266;51.132;17.062;2024-02-16T11:21:56;14.50;1.00
18281;DHT22;9266;51.132;17.062;2024-02-16T11:24:30;14.60;1.00
18281;DHT22;9266;51.132;17.062;2024-02-16T11:27:01;14.80;1.00
18281;DHT22;9266;51.132;17.062;2024-02-16T11:29:31;14.90;1.00
18281;DHT22;9266;51.132;17.062;2024-02-16T11:32:01;14.90;1.00
18281;DHT22;9266;51.132;17.062;2024-02-16T11:34:29;14.20;1.00
18281;DHT22;9266;51.132;17.062;2024-02-16T11:36:56;15.00;1.00
18281;DHT22;9266;51.132;17.062;2024-02-16T11:39:24;14.80;1.00
18281;DHT22;9266;51.132;17.062;2024-02-16T11:42:04;14.90;1.00
18281;DHT22;9266;51.132;17.062;2024-02-16T11:44:33;14.90;1.00
18281;DHT22;9266;51.132;17.062;2024-02-16T11:47:01;14.90;1.00
18281;DHT22;9266;51.132;17.062;2024-02-16T11:49:29;14.90;1.00
18281;DHT22;9266;51.132;17.062;2024-02-16T11:51:56;14.90;1.00
18281;DHT22;9266;51.132;17.062;2024-02-16T11:54:26;14.90;1.00
18281;DHT22;9266;51.132;17.062;2024-02-16T11:56:53;14.90;1.00
18281;DHT22;9266;51.132;17.062;2024-02-16T11:59:21;14.90;1.00
18281;DHT22;9266;51.132;17.062;2024-02-16T12:01:51;14.30;1.00
18281;DHT22;9266;51.132;17.062;2024-02-16T12:04:22;15.00;1.00
18281;DHT22;9266;51.132;17.062;2024-02-16T12:06:51;15.00;1.00
18281;DHT22;9266;51.132;17.062;2024-02-16T12:09:19;15.00;1.00
18281;DHT22;9266;51.132;17.062;2024-02-16T12:11:48;15.00;1.00
18281;DHT22;9266;51.132;17.062;2024-02-16T12:14:15;15.00;1.00
18281;DHT22;9266;51.132;17.062;2024-02-16T12:16:47;15.10;1.00
18281;DHT22;9266;51.132;17.062;2024-02-16T12:19:14;15.20;1.00
18281;DHT22;9266;51.132;17.062;2024-02-16T12:21:41;15.20;1.00
18281;DHT22;9266;51.132;17.062;2024-02-16T12:24:08;15.60;1.00
18281;DHT22;9266;51.132;17.062;2024-02-16T12:26:36;15.20;1.00
18281;DHT22;9266;51.132;17.062;2024-02-16T12:29:03;15.20;1.00
18281;DHT22;9266;51.132;17.062;2024-02-16T12:31:30;15.20;1.00
18281;DHT22;9266;51.132;17.062;2024-02-16T12:33:59;15.20;1.00
18281;DHT22;9266;51.132;17.062;2024-02-16T12:36:26;15.20;1.00
18281;DHT22;9266;51.132;17.062;2024-02-16T12:38:53;15.20;1.00
18281;DHT22;9266;51.132;17.062;2024-02-16T12:41:20;15.20;1.00
18281;DHT22;9266;51.132;17.062;2024-02-16T12:43:47;15.20;1.00
18281;DHT22;9266;51.132;17.062;2024-02-16T12:46:15;15.20;1.00
18281;DHT22;9266;51.132;17.062;2024-02-16T12:48:42;15.20;1.00
18281;DHT22;9266;51.132;17.062;2024-02-16T12:51:11;15.20;1.00
18281;DHT22;9266;51.132;17.062;2024-02-16T12:53:38;15.10;1.00
18281;DHT22;9266;51.132;17.062;2024-02-16T12:56:07;15.20;1.00
18281;DHT22;9266;51.132;17.062;2024-02-16T12:58:35;15.20;1.00
18281;DHT22;9266;51.132;17.062;2024-02-16T13:01:02;15.20;1.00
18281;DHT22;9266;51.132;17.062;2024-02-16T13:03:32;15.30;1.00
18281;DHT22;9266;51.132;17.062;2024-02-16T13:06:00;15.20;1.00
18281;DHT22;9266;51.132;17.062;2024-02-16T13:08:28;15.20;1.00
18281;DHT22;9266;51.132;17.062;2024-02-16T13:10:56;15.20;1.00
18281;DHT22;9266;51.132;17.062;2024-02-16T13:13:23;15.20;1.00
18281;DHT22;9266;51.132;17.062;2024-02-16T13:15:51;15.20;1.00
18281;DHT22;9266;51.132;17.062;2024-02-16T13:18:18;15.30;1.00
18281;DHT22;9266;51.132;17.062;2024-02-16T13:20:45;15.90;1.00
18281;DHT22;9266;51.132;17.062;2024-02-16T13:23:12;15.20;1.00
18281;DHT22;9266;51.132;17.062;2024-02-16T13:25:41;15.20;1.00
18281;DHT22;9266;51.132;17.062;2024-02-16T13:28:08;15.30;1.00
18281;DHT22;9266;51.132;17.062;2024-02-16T13:30:35;15.30;1.00
18281;DHT22;9266;51.132;17.062;2024-02-16T13:33:03;15.30;1.00
18281;DHT22;9266;51.132;17.062;2024-02-16T13:35:30;15.20;1.00
18281;DHT22;9266;51.132;17.062;2024-02-16T13:37:57;15.10;1.00
18281;DHT22;9266;51.132;17.062;2024-02-16T13:40:24;15.00;1.00
18281;DHT22;9266;51.132;17.062;2024-02-16T13:42:52;14.90;1.00
18281;DHT22;9266;51.132;17.062;2024-02-16T13:45:21;14.80;1.00
18281;DHT22;9266;51.132;17.062;2024-02-16T13:47:51;14.70;1.00
18281;DHT22;9266;51.132;17.062;2024-02-16T13:50:18;14.70;1.00
18281;DHT22;9266;51.132;17.062;2024-02-16T13:52:45;14.60;1.00
18281;DHT22;9266;51.132;17.062;2024-02-16T13:55:13;14.60;1.00
18281;DHT22;9266;51.132;17.062;2024-02-16T13:57:40;14.50;1.00
18281;DHT22;9266;51.132;17.062;2024-02-16T14:00:09;14.00;1.00
18281;DHT22;9266;51.132;17.062;2024-02-16T14:02:36;14.50;1.00
18281;DHT22;9266;51.132;17.062;2024-02-16T14:05:03;14.40;1.00
18281;DHT22;9266;51.132;17.062;2024-02-16T14:07:30;14.40;1.00
18281;DHT22;9266;51.132;17.062;2024-02-16T14:09:58;14.40;1.00
18281;DHT22;9266;51.132;17.062;2024-02-16T14:12:25;14.30;1.00
18281;DHT22;9266;51.132;17.062;2024-02-16T14:14:52;14.30;1.00
18281;DHT22;9266;51.132;17.062;2024-02-16T14:17:20;14.20;1.00
18281;DHT22;9266;51.132;17.062;2024-02-16T14:19:47;14.20;1.00
18281;DHT22;9266;51.132;17.062;2024-02-16T14:22:14;14.10;1.00
18281;DHT22;9266;51.132;17.062;2024-02-16T14:24:41;14.10;1.00
18281;DHT22;9266;51.132;17.062;2024-02-16T14:27:08;14.10;1.00
18281;DHT22;9266;51.132;17.062;2024-02-16T14:29:35;14.00;1.00
18281;DHT22;9266;51.132;17.062;2024-02-16T14:32:03;14.00;1.00
18281;DHT22;9266;51.132;17.062;2024-02-16T14:34:31;13.90;1.00
18281;DHT22;9266;51.132;17.062;2024-02-16T14:36:58;13.90;1.00
18281;DHT22;9266;51.132;17.062;2024-02-16T14:39:25;13.90;1.00
18281;DHT22;9266;51.132;17.062;2024-02-16T14:41:52;13.90;1.00
18281;DHT22;9266;51.132;17.062;2024-02-16T14:44:19;13.80;1.00
18281;DHT22;9266;51.132;17.062;2024-02-16T14:46:46;13.80;1.00
18281;DHT22;9266;51.132;17.062;2024-02-16T14:49:13;13.80;1.00
18281;DHT22;9266;51.132;17.062;2024-02-16T14:51:47;13.90;1.00
18281;DHT22;9266;51.132;17.062;2024-02-16T14:54:14;13.70;1.00
18281;DHT22;9266;51.132;17.062;2024-02-16T14:56:41;13.80;1.00
18281;DHT22;9266;51.132;17.062;2024-02-16T14:59:08;13.80;1.00
18281;DHT22;9266;51.132;17.062;2024-02-16T15:01:36;13.80;1.00
18281;DHT22;9266;51.132;17.062;2024-02-16T15:04:04;13.80;1.00
18281;DHT22;9266;51.132;17.062;2024-02-16T15:06:31;13.70;1.00
18281;DHT22;9266;51.132;17.062;2024-02-16T15:09:00;13.70;1.00
18281;DHT22;9266;51.132;17.062;2024-02-16T15:11:28;13.60;1.00
18281;DHT22;9266;51.132;17.062;2024-02-16T15:13:55;13.60;1.00
18281;DHT22;9266;51.132;17.062;2024-02-16T15:16:22;13.50;1.00
18281;DHT22;9266;51.132;17.062;2024-02-16T15:18:49;13.50;1.00
18281;DHT22;9266;51.132;17.062;2024-02-16T15:21:16;13.40;1.00
18281;DHT22;9266;51.132;17.062;2024-02-16T15:23:43;13.40;99.90
18281;DHT22;9266;51.132;17.062;2024-02-16T15:26:13;13.30;99.90
18281;DHT22;9266;51.132;17.062;2024-02-16T15:28:40;13.30;99.90
18281;DHT22;9266;51.132;17.062;2024-02-16T15:31:07;13.30;99.90
18281;DHT22;9266;51.132;17.062;2024-02-16T15:33:34;13.30;1.00
18281;DHT22;9266;51.132;17.062;2024-02-16T15:36:01;13.20;1.00
18281;DHT22;9266;51.132;17.062;2024-02-16T15:38:28;13.10;1.00
18281;DHT22;9266;51.132;17.062;2024-02-16T15:40:55;13.20;1.00
18281;DHT22;9266;51.132;17.062;2024-02-16T15:43:23;13.10;1.00
18281;DHT22;9266;51.132;17.062;2024-02-16T15:45:50;13.10;1.00
18281;DHT22;9266;51.132;17.062;2024-02-16T15:48:18;13.10;1.00
18281;DHT22;9266;51.132;17.062;2024-02-16T15:50:45;13.00;1.00